sensor_id;sensor_type;location;lat;lon;timestamp;P1;durP1;ratioP1;P2;durP2;ratioP2
66761;SDS011;53672;48.176;16.338;2023-03-19T00:02:00;17.17;;;7.90;;
66761;SDS011;53672;48.176;16.338;2023-03-19T00:07:00;17.03;;;8.17;;
66761;SDS011;53672;48.176;16.338;2023-03-19T00:12:01;15.17;;;7.80;;
66761;SDS011;53672;48.176;16.338;2023-03-19T00:17:03;18.98;;;8.07;;
66761;SDS011;53672;48.176;16.338;2023-03-19T00:22:03;17.73;;;8.15;;
66761;SDS011;53672;48.176;16.338;2023-03-19T00:27:04;18.73;;;8.13;;
66761;SDS011;53672;48.176;16.338;2023-03-19T00:32:06;16.08;;;7.72;;
66761;SDS011;53672;48.176;16.338;2023-03-19T00:37:07;15.10;;;7.87;;
66761;SDS011;53672;48.176;16.338;2023-03-19T00:42:08;15.27;;;7.77;;
66761;SDS011;53672;48.176;16.338;2023-03-19T00:47:10;17.52;;;7.80;;
66761;SDS011;53672;48.176;16.338;2023-03-19T00:52:10;17.08;;;8.05;;
66761;SDS011;53672;48.176;16.338;2023-03-19T00:57:11;16.47;;;8.13;;
66761;SDS011;53672;48.176;16.338;2023-03-19T01:02:13;16.70;;;8.13;;
66761;SDS011;53672;48.176;16.338;2023-03-19T01:07:14;17.02;;;8.13;;
66761;SDS011;53672;48.176;16.338;2023-03-19T01:12:14;18.50;;;8.37;;
66761;SDS011;53672;48.176;16.338;2023-03-19T01:17:16;17.20;;;8.60;;
66761;SDS011;53672;48.176;16.338;2023-03-19T01:22:17;19.55;;;8.30;;
66761;SDS011;53672;48.176;16.338;2023-03-19T01:27:17;17.13;;;7.63;;
66761;SDS011;53672;48.176;16.338;2023-03-19T01:32:20;16.48;;;7.43;;
66761;SDS011;53672;48.176;16.338;2023-03-19T01:37:21;15.57;;;8.40;;
66761;SDS011;53672;48.176;16.338;2023-03-19T01:42:21;16.90;;;7.87;;
66761;SDS011;53672;48.176;16.338;2023-03-19T01:47:27;17.07;;;7.50;;
66761;SDS011;53672;48.176;16.338;2023-03-19T01:52:31;16.13;;;7.85;;
66761;SDS011;53672;48.176;16.338;2023-03-19T01:57:33;14.55;;;7.75;;
66761;SDS011;53672;48.176;16.338;2023-03-19T02:02:35;19.03;;;8.23;;
66761;SDS011;53672;48.176;16.338;2023-03-19T02:07:38;17.10;;;7.80;;
66761;SDS011;53672;48.176;16.338;2023-03-19T02:12:41;15.75;;;7.68;;
66761;SDS011;53672;48.176;16.338;2023-03-19T02:17:43;16.80;;;8.13;;
66761;SDS011;53672;48.176;16.338;2023-03-19T02:22:47;17.23;;;7.78;;
66761;SDS011;53672;48.176;16.338;2023-03-19T02:27:55;17.10;;;8.38;;
66761;SDS011;53672;48.176;16.338;2023-03-19T02:32:56;16.08;;;7.22;;
66761;SDS011;53672;48.176;16.338;2023-03-19T02:37:57;14.80;;;6.53;;
66761;SDS011;53672;48.176;16.338;2023-03-19T02:42:59;15.93;;;7.72;;
66761;SDS011;53672;48.176;16.338;2023-03-19T02:47:59;17.53;;;7.83;;
66761;SDS011;53672;48.176;16.338;2023-03-19T02:53:00;16.45;;;8.20;;
66761;SDS011;53672;48.176;16.338;2023-03-19T02:58:02;15.10;;;7.65;;
66761;SDS011;53672;48.176;16.338;2023-03-19T03:03:03;16.90;;;7.67;;
66761;SDS011;53672;48.176;16.338;2023-03-19T03:08:05;15.65;;;7.88;;
66761;SDS011;53672;48.176;16.338;2023-03-19T03:13:07;17.13;;;8.33;;
66761;SDS011;53672;48.176;16.338;2023-03-19T03:18:07;16.48;;;8.05;;
66761;SDS011;53672;48.176;16.338;2023-03-19T03:23:08;17.77;;;7.82;;
66761;SDS011;53672;48.176;16.338;2023-03-19T03:28:09;18.67;;;7.83;;
66761;SDS011;53672;48.176;16.338;2023-03-19T03:33:10;18.17;;;7.73;;
66761;SDS011;53672;48.176;16.338;2023-03-19T03:38:10;16.95;;;7.85;;
66761;SDS011;53672;48.176;16.338;2023-03-19T03:43:12;18.05;;;8.18;;
66761;SDS011;53672;48.176;16.338;2023-03-19T03:48:13;15.23;;;7.40;;
66761;SDS011;53672;48.176;16.338;2023-03-19T03:53:14;19.08;;;8.23;;
66761;SDS011;53672;48.176;16.338;2023-03-19T03:58:16;17.60;;;7.90;;
66761;SDS011;53672;48.176;16.338;2023-03-19T04:03:17;17.73;;;8.10;;
66761;SDS011;53672;48.176;16.338;2023-03-19T04:08:17;17.83;;;8.43;;
66761;SDS011;53672;48.176;16.338;2023-03-19T04:13:19;18.63;;;8.37;;
66761;SDS011;53672;48.176;16.338;2023-03-19T04:18:20;19.73;;;8.60;;
66761;SDS011;53672;48.176;16.338;2023-03-19T04:23:20;18.13;;;8.45;;
66761;SDS011;53672;48.176;16.338;2023-03-19T04:28:22;17.70;;;8.70;;
66761;SDS011;53672;48.176;16.338;2023-03-19T04:33:23;16.70;;;8.47;;
66761;SDS011;53672;48.176;16.338;2023-03-19T04:38:23;22.50;;;8.60;;
66761;SDS011;53672;48.176;16.338;2023-03-19T04:43:26;15.98;;;8.10;;
66761;SDS011;53672;48.176;16.338;2023-03-19T04:48:26;16.83;;;8.27;;
66761;SDS011;53672;48.176;16.338;2023-03-19T04:53:27;18.67;;;8.87;;
66761;SDS011;53672;48.176;16.338;2023-03-19T04:58:29;18.37;;;8.87;;
66761;SDS011;53672;48.176;16.338;2023-03-19T05:03:29;18.00;;;8.50;;
66761;SDS011;53672;48.176;16.338;2023-03-19T05:08:30;17.40;;;9.02;;
66761;SDS011;53672;48.176;16.338;2023-03-19T05:13:32;19.48;;;8.93;;
66761;SDS011;53672;48.176;16.338;2023-03-19T05:18:32;17.20;;;8.60;;
66761;SDS011;53672;48.176;16.338;2023-03-19T05:23:33;17.53;;;9.10;;
66761;SDS011;53672;48.176;16.338;2023-03-19T05:28:34;18.53;;;8.60;;
66761;SDS011;53672;48.176;16.338;2023-03-19T05:33:35;22.13;;;8.88;;
66761;SDS011;53672;48.176;16.338;2023-03-19T05:38:35;18.23;;;8.80;;
66761;SDS011;53672;48.176;16.338;2023-03-19T05:43:37;19.53;;;8.23;;
66761;SDS011;53672;48.176;16.338;2023-03-19T05:48:38;18.17;;;8.43;;
66761;SDS011;53672;48.176;16.338;2023-03-19T05:53:38;19.30;;;8.67;;
66761;SDS011;53672;48.176;16.338;2023-03-19T05:58:40;17.93;;;8.03;;
66761;SDS011;53672;48.176;16.338;2023-03-19T06:03:41;18.23;;;8.65;;
66761;SDS011;53672;48.176;16.338;2023-03-19T06:08:41;18.97;;;8.60;;
66761;SDS011;53672;48.176;16.338;2023-03-19T06:13:43;18.17;;;8.60;;
66761;SDS011;53672;48.176;16.338;2023-03-19T06:18:44;20.23;;;8.70;;
66761;SDS011;53672;48.176;16.338;2023-03-19T06:23:44;18.97;;;8.83;;
66761;SDS011;53672;48.176;16.338;2023-03-19T06:28:46;17.70;;;8.20;;
66761;SDS011;53672;48.176;16.338;2023-03-19T06:33:47;19.30;;;8.37;;
66761;SDS011;53672;48.176;16.338;2023-03-19T06:38:47;19.50;;;9.02;;
66761;SDS011;53672;48.176;16.338;2023-03-19T06:43:49;18.65;;;8.98;;
66761;SDS011;53672;48.176;16.338;2023-03-19T06:48:50;19.03;;;8.53;;
66761;SDS011;53672;48.176;16.338;2023-03-19T06:53:50;16.87;;;8.97;;
66761;SDS011;53672;48.176;16.338;2023-03-19T06:58:52;16.17;;;8.50;;
66761;SDS011;53672;48.176;16.338;2023-03-19T07:03:52;19.92;;;9.40;;
66761;SDS011;53672;48.176;16.338;2023-03-19T07:08:53;19.67;;;9.13;;
66761;SDS011;53672;48.176;16.338;2023-03-19T07:13:55;18.23;;;9.20;;
66761;SDS011;53672;48.176;16.338;2023-03-19T07:18:55;19.45;;;8.98;;
66761;SDS011;53672;48.176;16.338;2023-03-19T07:23:56;18.23;;;8.70;;
66761;SDS011;53672;48.176;16.338;2023-03-19T07:28:58;19.17;;;9.27;;
66761;SDS011;53672;48.176;16.338;2023-03-19T07:33:58;19.48;;;10.05;;
66761;SDS011;53672;48.176;16.338;2023-03-19T07:38:59;17.67;;;9.00;;
66761;SDS011;53672;48.176;16.338;2023-03-19T07:44:01;19.97;;;10.17;;
66761;SDS011;53672;48.176;16.338;2023-03-19T07:49:01;18.77;;;9.73;;
66761;SDS011;53672;48.176;16.338;2023-03-19T07:54:02;19.52;;;9.75;;
66761;SDS011;53672;48.176;16.338;2023-03-19T07:59:04;18.83;;;9.82;;
66761;SDS011;53672;48.176;16.338;2023-03-19T08:04:05;19.53;;;9.87;;
66761;SDS011;53672;48.176;16.338;2023-03-19T08:09:05;16.92;;;9.10;;
66761;SDS011;53672;48.176;16.338;2023-03-19T08:14:07;16.03;;;9.23;;
66761;SDS011;53672;48.176;16.338;2023-03-19T08:19:08;19.13;;;10.02;;
66761;SDS011;53672;48.176;16.338;2023-03-19T08:24:08;19.63;;;10.82;;
66761;SDS011;53672;48.176;16.338;2023-03-19T08:29:10;19.07;;;10.27;;
66761;SDS011;53672;48.176;16.338;2023-03-19T08:34:11;18.10;;;9.77;;
66761;SDS011;53672;48.176;16.338;2023-03-19T08:39:11;16.87;;;10.00;;
66761;SDS011;53672;48.176;16.338;2023-03-19T08:44:13;15.77;;;9.77;;
66761;SDS011;53672;48.176;16.338;2023-03-19T08:49:14;16.85;;;10.05;;
66761;SDS011;53672;48.176;16.338;2023-03-19T08:54:14;16.27;;;10.47;;
66761;SDS011;53672;48.176;16.338;2023-03-19T08:59:16;15.38;;;10.50;;
66761;SDS011;53672;48.176;16.338;2023-03-19T09:04:17;16.73;;;10.40;;
66761;SDS011;53672;48.176;16.338;2023-03-19T09:09:17;16.63;;;11.03;;
66761;SDS011;53672;48.176;16.338;2023-03-19T09:14:20;17.10;;;11.20;;
66761;SDS011;53672;48.176;16.338;2023-03-19T09:19:21;17.65;;;10.68;;
66761;SDS011;53672;48.176;16.338;2023-03-19T09:24:21;15.35;;;10.60;;
66761;SDS011;53672;48.176;16.338;2023-03-19T09:29:23;15.73;;;10.93;;
66761;SDS011;53672;48.176;16.338;2023-03-19T09:34:23;16.97;;;10.93;;
66761;SDS011;53672;48.176;16.338;2023-03-19T09:39:24;16.20;;;11.03;;
66761;SDS011;53672;48.176;16.338;2023-03-19T09:44:28;17.52;;;11.80;;
66761;SDS011;53672;48.176;16.338;2023-03-19T09:49:30;16.98;;;11.60;;
66761;SDS011;53672;48.176;16.338;2023-03-19T09:54:43;15.93;;;11.40;;
66761;SDS011;53672;48.176;16.338;2023-03-19T09:59:47;15.95;;;11.20;;
66761;SDS011;53672;48.176;16.338;2023-03-19T10:04:51;15.50;;;11.37;;
66761;SDS011;53672;48.176;16.338;2023-03-19T10:10:03;16.40;;;11.68;;
66761;SDS011;53672;48.176;16.338;2023-03-19T10:15:21;16.90;;;12.02;;
66761;SDS011;53672;48.176;16.338;2023-03-19T10:20:31;17.03;;;12.00;;
66761;SDS011;53672;48.176;16.338;2023-03-19T10:25:39;16.30;;;11.68;;
66761;SDS011;53672;48.176;16.338;2023-03-19T10:30:45;17.00;;;11.80;;
66761;SDS011;53672;48.176;16.338;2023-03-19T10:35:55;17.60;;;12.18;;
66761;SDS011;53672;48.176;16.338;2023-03-19T10:41:02;18.15;;;11.85;;
66761;SDS011;53672;48.176;16.338;2023-03-19T10:46:16;18.67;;;12.20;;
66761;SDS011;53672;48.176;16.338;2023-03-19T10:51:19;17.98;;;12.50;;
66761;SDS011;53672;48.176;16.338;2023-03-19T10:56:22;17.60;;;11.93;;
66761;SDS011;53672;48.176;16.338;2023-03-19T11:01:30;18.27;;;11.70;;
66761;SDS011;53672;48.176;16.338;2023-03-19T11:06:33;18.55;;;12.27;;
66761;SDS011;53672;48.176;16.338;2023-03-19T11:11:35;20.33;;;12.57;;
66761;SDS011;53672;48.176;16.338;2023-03-19T11:16:49;22.30;;;12.32;;
66761;SDS011;53672;48.176;16.338;2023-03-19T11:21:58;18.23;;;11.77;;
66761;SDS011;53672;48.176;16.338;2023-03-19T11:27:01;19.80;;;12.10;;
66761;SDS011;53672;48.176;16.338;2023-03-19T11:32:05;20.47;;;11.90;;
66761;SDS011;53672;48.176;16.338;2023-03-19T11:37:19;20.65;;;11.88;;
66761;SDS011;53672;48.176;16.338;2023-03-19T11:42:33;18.70;;;11.60;;
66761;SDS011;53672;48.176;16.338;2023-03-19T11:47:56;19.15;;;11.60;;
66761;SDS011;53672;48.176;16.338;2023-03-19T11:53:11;17.98;;;11.80;;
66761;SDS011;53672;48.176;16.338;2023-03-19T11:58:23;17.35;;;11.60;;
66761;SDS011;53672;48.176;16.338;2023-03-19T12:03:56;18.27;;;11.38;;
66761;SDS011;53672;48.176;16.338;2023-03-19T12:09:21;18.40;;;11.10;;
66761;SDS011;53672;48.176;16.338;2023-03-19T12:14:30;19.95;;;12.00;;
66761;SDS011;53672;48.176;16.338;2023-03-19T12:19:50;17.02;;;10.40;;
66761;SDS011;53672;48.176;16.338;2023-03-19T12:25:08;20.55;;;11.18;;
66761;SDS011;53672;48.176;16.338;2023-03-19T12:30:31;18.20;;;10.82;;
66761;SDS011;53672;48.176;16.338;2023-03-19T12:35:38;18.17;;;10.70;;
66761;SDS011;53672;48.176;16.338;2023-03-19T12:40:40;16.75;;;9.93;;
66761;SDS011;53672;48.176;16.338;2023-03-19T12:45:46;18.00;;;10.50;;
66761;SDS011;53672;48.176;16.338;2023-03-19T12:50:53;20.08;;;10.95;;
66761;SDS011;53672;48.176;16.338;2023-03-19T12:55:58;19.77;;;10.15;;
66761;SDS011;53672;48.176;16.338;2023-03-19T13:01:05;18.40;;;10.17;;
66761;SDS011;53672;48.176;16.338;2023-03-19T13:06:14;17.25;;;10.13;;
66761;SDS011;53672;48.176;16.338;2023-03-19T13:11:19;19.80;;;10.57;;
66761;SDS011;53672;48.176;16.338;2023-03-19T13:16:29;17.25;;;9.95;;
66761;SDS011;53672;48.176;16.338;2023-03-19T13:21:38;17.00;;;9.60;;
66761;SDS011;53672;48.176;16.338;2023-03-19T13:26:40;16.17;;;9.23;;
66761;SDS011;53672;48.176;16.338;2023-03-19T13:31:42;15.20;;;9.05;;
66761;SDS011;53672;48.176;16.338;2023-03-19T13:36:45;17.25;;;9.32;;
66761;SDS011;53672;48.176;16.338;2023-03-19T13:41:52;15.52;;;9.43;;
66761;SDS011;53672;48.176;16.338;2023-03-19T13:46:58;15.70;;;8.75;;
66761;SDS011;53672;48.176;16.338;2023-03-19T13:52:09;17.23;;;9.30;;
66761;SDS011;53672;48.176;16.338;2023-03-19T13:57:50;17.10;;;9.38;;
66761;SDS011;53672;48.176;16.338;2023-03-19T14:02:53;15.73;;;9.25;;
66761;SDS011;53672;48.176;16.338;2023-03-19T14:07:55;15.20;;;8.52;;
66761;SDS011;53672;48.176;16.338;2023-03-19T14:13:00;18.07;;;8.70;;
66761;SDS011;53672;48.176;16.338;2023-03-19T14:18:04;15.35;;;9.00;;
66761;SDS011;53672;48.176;16.338;2023-03-19T14:23:17;19.42;;;11.07;;
66761;SDS011;53672;48.176;16.338;2023-03-19T14:28:22;17.75;;;9.65;;
66761;SDS011;53672;48.176;16.338;2023-03-19T14:33:30;15.60;;;8.43;;
66761;SDS011;53672;48.176;16.338;2023-03-19T14:38:45;18.07;;;9.30;;
66761;SDS011;53672;48.176;16.338;2023-03-19T14:49:39;16.08;;;9.02;;
66761;SDS011;53672;48.176;16.338;2023-03-19T14:54:55;15.38;;;8.60;;
66761;SDS011;53672;48.176;16.338;2023-03-19T14:59:58;17.55;;;8.65;;
66761;SDS011;53672;48.176;16.338;2023-03-19T15:05:00;15.83;;;8.10;;
66761;SDS011;53672;48.176;16.338;2023-03-19T15:10:05;16.35;;;8.88;;
66761;SDS011;53672;48.176;16.338;2023-03-19T15:20:45;14.98;;;8.60;;
66761;SDS011;53672;48.176;16.338;2023-03-19T15:25:51;16.27;;;8.15;;
66761;SDS011;53672;48.176;16.338;2023-03-19T15:30:53;15.93;;;8.50;;
66761;SDS011;53672;48.176;16.338;2023-03-19T15:35:57;15.95;;;8.85;;
66761;SDS011;53672;48.176;16.338;2023-03-19T15:41:00;17.67;;;8.57;;
66761;SDS011;53672;48.176;16.338;2023-03-19T15:46:02;17.70;;;8.93;;
66761;SDS011;53672;48.176;16.338;2023-03-19T15:51:03;17.07;;;8.43;;
66761;SDS011;53672;48.176;16.338;2023-03-19T15:56:08;17.27;;;8.40;;
66761;SDS011;53672;48.176;16.338;2023-03-19T16:01:12;15.32;;;8.35;;
66761;SDS011;53672;48.176;16.338;2023-03-19T16:06:16;15.30;;;8.50;;
66761;SDS011;53672;48.176;16.338;2023-03-19T16:11:26;16.10;;;8.75;;
66761;SDS011;53672;48.176;16.338;2023-03-19T16:16:28;16.48;;;8.23;;
66761;SDS011;53672;48.176;16.338;2023-03-19T16:21:32;15.48;;;8.48;;
66761;SDS011;53672;48.176;16.338;2023-03-19T16:26:37;17.60;;;8.70;;
66761;SDS011;53672;48.176;16.338;2023-03-19T16:31:40;16.73;;;8.67;;
66761;SDS011;53672;48.176;16.338;2023-03-19T16:36:44;16.38;;;8.32;;
66761;SDS011;53672;48.176;16.338;2023-03-19T16:41:55;18.13;;;8.70;;
66761;SDS011;53672;48.176;16.338;2023-03-19T16:47:14;17.85;;;8.90;;
66761;SDS011;53672;48.176;16.338;2023-03-19T16:52:17;20.48;;;9.50;;
66761;SDS011;53672;48.176;16.338;2023-03-19T16:57:21;17.83;;;9.03;;
66761;SDS011;53672;48.176;16.338;2023-03-19T17:02:24;17.58;;;9.48;;
66761;SDS011;53672;48.176;16.338;2023-03-19T17:07:26;19.15;;;9.35;;
66761;SDS011;53672;48.176;16.338;2023-03-19T17:12:28;18.83;;;10.52;;
66761;SDS011;53672;48.176;16.338;2023-03-19T17:17:30;17.45;;;10.00;;
66761;SDS011;53672;48.176;16.338;2023-03-19T17:22:31;17.03;;;10.00;;
66761;SDS011;53672;48.176;16.338;2023-03-19T17:27:36;18.83;;;10.02;;
66761;SDS011;53672;48.176;16.338;2023-03-19T17:32:37;24.57;;;11.27;;
66761;SDS011;53672;48.176;16.338;2023-03-19T17:37:39;22.90;;;11.43;;
66761;SDS011;53672;48.176;16.338;2023-03-19T17:42:42;22.02;;;11.20;;
66761;SDS011;53672;48.176;16.338;2023-03-19T17:47:45;21.33;;;11.20;;
66761;SDS011;53672;48.176;16.338;2023-03-19T17:52:48;20.27;;;11.68;;
66761;SDS011;53672;48.176;16.338;2023-03-19T17:57:52;25.27;;;12.13;;
66761;SDS011;53672;48.176;16.338;2023-03-19T18:02:53;25.70;;;13.18;;
66761;SDS011;53672;48.176;16.338;2023-03-19T18:07:54;23.98;;;12.27;;
66761;SDS011;53672;48.176;16.338;2023-03-19T18:12:57;29.40;;;13.03;;
66761;SDS011;53672;48.176;16.338;2023-03-19T18:18:01;28.08;;;14.38;;
66761;SDS011;53672;48.176;16.338;2023-03-19T18:23:04;24.93;;;13.37;;
66761;SDS011;53672;48.176;16.338;2023-03-19T18:28:08;25.60;;;13.18;;
66761;SDS011;53672;48.176;16.338;2023-03-19T18:33:10;25.07;;;12.43;;
66761;SDS011;53672;48.176;16.338;2023-03-19T18:38:15;26.75;;;12.85;;
66761;SDS011;53672;48.176;16.338;2023-03-19T18:43:20;24.83;;;13.07;;
66761;SDS011;53672;48.176;16.338;2023-03-19T18:48:22;22.73;;;11.90;;
66761;SDS011;53672;48.176;16.338;2023-03-19T18:53:25;22.10;;;11.48;;
66761;SDS011;53672;48.176;16.338;2023-03-19T18:58:28;26.67;;;12.43;;
66761;SDS011;53672;48.176;16.338;2023-03-19T19:03:35;22.92;;;11.85;;
66761;SDS011;53672;48.176;16.338;2023-03-19T19:08:36;23.25;;;12.05;;
66761;SDS011;53672;48.176;16.338;2023-03-19T19:13:39;22.93;;;12.30;;
66761;SDS011;53672;48.176;16.338;2023-03-19T19:18:41;25.35;;;12.80;;
66761;SDS011;53672;48.176;16.338;2023-03-19T19:23:42;23.77;;;12.50;;
66761;SDS011;53672;48.176;16.338;2023-03-19T19:28:45;20.77;;;11.75;;
66761;SDS011;53672;48.176;16.338;2023-03-19T19:33:47;21.27;;;11.18;;
66761;SDS011;53672;48.176;16.338;2023-03-19T19:38:48;23.13;;;11.37;;
66761;SDS011;53672;48.176;16.338;2023-03-19T19:43:51;19.73;;;11.20;;
66761;SDS011;53672;48.176;16.338;2023-03-19T19:48:54;20.53;;;11.20;;
66761;SDS011;53672;48.176;16.338;2023-03-19T19:53:55;22.67;;;11.60;;
66761;SDS011;53672;48.176;16.338;2023-03-19T19:58:58;28.63;;;12.43;;
66761;SDS011;53672;48.176;16.338;2023-03-19T20:03:59;23.20;;;12.60;;
66761;SDS011;53672;48.176;16.338;2023-03-19T20:09:01;23.55;;;12.73;;
66761;SDS011;53672;48.176;16.338;2023-03-19T20:14:03;28.30;;;13.80;;
66761;SDS011;53672;48.176;16.338;2023-03-19T20:19:04;25.00;;;13.18;;
66761;SDS011;53672;48.176;16.338;2023-03-19T20:24:05;24.52;;;12.50;;
66761;SDS011;53672;48.176;16.338;2023-03-19T20:29:09;30.93;;;15.80;;
66761;SDS011;53672;48.176;16.338;2023-03-19T20:34:14;21.63;;;12.55;;
66761;SDS011;53672;48.176;16.338;2023-03-19T20:39:15;22.60;;;13.03;;
66761;SDS011;53672;48.176;16.338;2023-03-19T20:44:19;25.42;;;12.90;;
66761;SDS011;53672;48.176;16.338;2023-03-19T20:49:24;23.55;;;13.57;;
66761;SDS011;53672;48.176;16.338;2023-03-19T20:54:25;22.17;;;12.53;;
66761;SDS011;53672;48.176;16.338;2023-03-19T20:59:28;23.35;;;13.73;;
66761;SDS011;53672;48.176;16.338;2023-03-19T21:04:29;24.80;;;13.70;;
66761;SDS011;53672;48.176;16.338;2023-03-19T21:09:30;25.50;;;13.57;;
66761;SDS011;53672;48.176;16.338;2023-03-19T21:14:33;23.90;;;13.30;;
66761;SDS011;53672;48.176;16.338;2023-03-19T21:19:34;23.90;;;12.83;;
66761;SDS011;53672;48.176;16.338;2023-03-19T21:24:35;26.77;;;13.70;;
66761;SDS011;53672;48.176;16.338;2023-03-19T21:29:39;27.93;;;14.43;;
66761;SDS011;53672;48.176;16.338;2023-03-19T21:34:40;24.45;;;13.45;;
66761;SDS011;53672;48.176;16.338;2023-03-19T21:39:41;23.55;;;12.60;;
66761;SDS011;53672;48.176;16.338;2023-03-19T21:44:44;23.63;;;13.05;;
66761;SDS011;53672;48.176;16.338;2023-03-19T21:49:44;24.05;;;13.32;;
66761;SDS011;53672;48.176;16.338;2023-03-19T21:54:45;27.23;;;13.25;;
66761;SDS011;53672;48.176;16.338;2023-03-19T22:03:25;25.73;;;12.97;;
66761;SDS011;53672;48.176;16.338;2023-03-19T22:11:28;29.13;;;15.60;;
66761;SDS011;53672;48.176;16.338;2023-03-19T22:16:31;25.45;;;12.85;;
66761;SDS011;53672;48.176;16.338;2023-03-19T22:21:32;23.77;;;13.87;;
66761;SDS011;53672;48.176;16.338;2023-03-19T22:26:35;26.83;;;13.48;;
66761;SDS011;53672;48.176;16.338;2023-03-19T22:31:38;24.80;;;13.15;;
66761;SDS011;53672;48.176;16.338;2023-03-19T22:36:39;24.17;;;12.93;;
66761;SDS011;53672;48.176;16.338;2023-03-19T22:41:41;26.47;;;13.53;;
66761;SDS011;53672;48.176;16.338;2023-03-19T22:46:44;23.88;;;12.80;;
66761;SDS011;53672;48.176;16.338;2023-03-19T22:51:45;24.40;;;13.35;;
66761;SDS011;53672;48.176;16.338;2023-03-19T22:56:47;26.67;;;12.70;;
66761;SDS011;53672;48.176;16.338;2023-03-19T23:01:47;24.67;;;12.70;;
66761;SDS011;53672;48.176;16.338;2023-03-19T23:06:48;24.55;;;12.23;;
66761;SDS011;53672;48.176;16.338;2023-03-19T23:11:50;20.80;;;11.70;;
66761;SDS011;53672;48.176;16.338;2023-03-19T23:16:51;23.70;;;12.07;;
66761;SDS011;53672;48.176;16.338;2023-03-19T23:21:52;25.43;;;13.43;;
66761;SDS011;53672;48.176;16.338;2023-03-19T23:26:54;24.03;;;12.73;;
66761;SDS011;53672;48.176;16.338;2023-03-19T23:31:56;25.52;;;12.98;;
66761;SDS011;53672;48.176;16.338;2023-03-19T23:36:56;23.60;;;12.90;;
66761;SDS011;53672;48.176;16.338;2023-03-19T23:41:58;23.57;;;12.30;;
66761;SDS011;53672;48.176;16.338;2023-03-19T23:47:14;26.27;;;13.77;;
66761;SDS011;53672;48.176;16.338;2023-03-19T23:52:15;23.65;;;12.73;;
66761;SDS011;53672;48.176;16.338;2023-03-19T23:57:17;25.48;;;13.57;;
